Time;durP1;ratioP1;P1;durP2;ratioP2;P2;SDS_P1;SDS_P2;PMS_P1;PMS_P2;Temp;Humidity;BMP_temperature;BMP_pressure;BME280_temperature;BME280_humidity;BME280_pressure;Samples;Min_cycle;Max_cycle;Signal;HPM_P1;HPM_P2
2022/04/15 00:00:39;;;;;;;16.15;8.07;;;6.40;99.90;;;;;;5025581;28;20462;-68
2022/04/15 00:03:06;;;;;;;11.07;7.70;;;6.30;99.90;;;;;;5027191;28;20428;-68
2022/04/15 00:05:36;;;;;;;12.82;8.10;;;6.40;99.90;;;;;;5012577;28;20053;-68
2022/04/15 00:08:09;;;;;;;13.85;8.60;;;6.40;99.90;;;;;;5025751;28;20067;-68
2022/04/15 00:10:35;;;;;;;12.98;8.32;;;6.40;99.90;;;;;;5022767;28;20059;-69
2022/04/15 00:13:02;;;;;;;11.55;8.27;;;6.40;99.90;;;;;;5023917;28;20037;-69
2022/04/15 00:15:27;;;;;;;17.60;7.93;;;6.40;99.90;;;;;;5023000;28;20045;-69
2022/04/15 00:17:54;;;;;;;11.60;7.55;;;6.40;99.90;;;;;;5024773;28;20048;-69
2022/04/15 00:20:20;;;;;;;15.90;8.68;;;6.30;99.90;;;;;;5025522;28;20523;-69
2022/04/15 00:22:46;;;;;;;11.93;8.30;;;6.40;99.90;;;;;;5023184;28;20067;-69
2022/04/15 00:25:12;;;;;;;11.85;8.38;;;6.30;99.90;;;;;;5026655;28;20130;-69
2022/04/15 00:27:40;;;;;;;15.05;8.07;;;6.40;99.90;;;;;;5023906;28;20046;-69
2022/04/15 00:30:08;;;;;;;13.00;8.48;;;6.30;99.90;;;;;;5024255;28;20072;-69
2022/04/15 00:32:34;;;;;;;14.02;8.52;;;6.30;99.90;;;;;;5040462;28;20406;-69
2022/04/15 00:34:59;;;;;;;12.18;8.27;;;6.40;99.90;;;;;;5023214;28;20050;-69
2022/04/15 00:37:25;;;;;;;12.18;8.68;;;6.30;99.90;;;;;;5022285;28;20041;-69
2022/04/15 00:39:51;;;;;;;14.98;8.18;;;6.20;99.90;;;;;;5008917;28;20525;-69
2022/04/15 00:42:17;;;;;;;11.75;7.57;;;6.20;99.90;;;;;;5005111;28;20114;-69
2022/04/15 00:44:43;;;;;;;11.50;8.32;;;6.20;99.90;;;;;;5025420;28;20094;-69
2022/04/15 00:47:18;;;;;;;14.57;8.85;;;6.10;99.90;;;;;;5006848;28;20042;-69
2022/04/15 00:49:44;;;;;;;13.95;8.45;;;6.10;99.90;;;;;;5007514;28;20112;-69
2022/04/15 00:52:12;;;;;;;13.45;8.10;;;6.10;99.90;;;;;;5022088;28;20517;-69
2022/04/15 00:54:39;;;;;;;14.27;7.70;;;6.00;99.90;;;;;;5023574;28;20049;-69
2022/04/15 00:57:09;;;;;;;16.13;7.93;;;6.00;99.90;;;;;;5021101;28;20754;-69
2022/04/15 00:59:38;;;;;;;8.85;7.72;;;5.90;99.90;;;;;;5025929;28;20052;-69
2022/04/15 01:02:04;;;;;;;11.13;7.97;;;5.90;99.90;;;;;;5023146;28;20099;-68
2022/04/15 01:04:31;;;;;;;14.27;8.13;;;5.90;99.90;;;;;;5026047;28;20559;-69
2022/04/15 01:07:02;;;;;;;11.20;8.55;;;5.80;99.90;;;;;;5021330;28;20402;-68
2022/04/15 01:09:33;;;;;;;12.35;8.40;;;5.80;99.90;;;;;;5024745;28;20116;-68
2022/04/15 01:12:03;;;;;;;11.55;7.90;;;5.70;99.90;;;;;;5021112;28;20106;-68
2022/04/15 01:14:30;;;;;;;13.15;7.93;;;5.60;99.90;;;;;;5008664;28;20049;-68
2022/04/15 01:16:56;;;;;;;11.43;7.82;;;5.60;99.90;;;;;;5006552;28;20072;-69
2022/04/15 01:19:22;;;;;;;12.40;8.23;;;5.60;99.90;;;;;;5021007;28;20403;-69
2022/04/15 01:21:50;;;;;;;10.38;8.45;;;5.60;99.90;;;;;;5023519;28;20045;-69
2022/04/15 01:24:16;;;;;;;12.95;8.13;;;5.60;99.90;;;;;;5020574;28;20052;-69
2022/04/15 01:26:42;;;;;;;14.07;8.80;;;5.70;99.90;;;;;;5026060;28;20037;-68
2022/04/15 01:29:07;;;;;;;12.27;8.32;;;5.70;99.90;;;;;;5023384;28;20053;-67
2022/04/15 01:31:33;;;;;;;12.15;9.00;;;5.70;99.90;;;;;;5021528;28;20057;-68
2022/04/15 01:33:59;;;;;;;11.35;8.38;;;5.70;99.90;;;;;;5024932;28;20064;-68
2022/04/15 01:36:26;;;;;;;12.80;8.30;;;5.80;99.90;;;;;;5025920;28;20623;-68
2022/04/15 01:38:54;;;;;;;11.77;8.00;;;5.80;99.90;;;;;;5023582;28;20045;-68
2022/04/15 01:41:22;;;;;;;14.57;8.02;;;5.90;99.90;;;;;;5024559;28;20045;-68
2022/04/15 01:43:48;;;;;;;13.05;8.45;;;5.90;99.90;;;;;;5028028;28;20044;-68
2022/04/15 01:46:14;;;;;;;11.63;7.63;;;6.00;99.90;;;;;;5026101;28;20037;-67
2022/04/15 01:48:39;;;;;;;13.20;9.15;;;6.00;99.90;;;;;;5026915;28;20685;-68
2022/04/15 01:51:05;;;;;;;10.57;8.13;;;6.00;99.90;;;;;;5026356;28;20136;-68
2022/04/15 01:53:31;;;;;;;11.23;8.45;;;6.10;99.90;;;;;;5010292;28;20045;-68
2022/04/15 01:55:56;;;;;;;13.68;8.68;;;6.10;99.90;;;;;;5027410;28;20034;-68
2022/04/15 01:58:22;;;;;;;13.57;8.63;;;6.10;99.90;;;;;;5025954;28;20029;-68
2022/04/15 02:00:48;;;;;;;13.18;8.63;;;6.10;99.90;;;;;;5025611;28;20117;-68
2022/04/15 02:03:13;;;;;;;11.35;8.70;;;6.10;99.90;;;;;;5026788;28;20095;-68
2022/04/15 02:05:39;;;;;;;11.18;8.13;;;6.20;99.90;;;;;;5027977;28;20059;-68
2022/04/15 02:08:05;;;;;;;14.27;8.40;;;6.30;99.90;;;;;;5026925;28;20037;-68
2022/04/15 02:10:31;;;;;;;14.00;10.00;;;6.30;99.90;;;;;;5026991;28;20033;-68
2022/04/15 02:12:57;;;;;;;13.98;8.82;;;6.30;99.90;;;;;;5024275;28;20049;-68
2022/04/15 02:15:22;;;;;;;12.30;8.45;;;6.40;99.90;;;;;;5027214;28;20101;-68
2022/04/15 02:17:48;;;;;;;13.43;8.80;;;6.40;99.90;;;;;;5025359;28;20135;-67
2022/04/15 02:20:14;;;;;;;11.05;9.15;;;6.40;99.90;;;;;;5027684;28;20034;-68
2022/04/15 02:22:39;;;;;;;17.02;9.18;;;6.40;99.90;;;;;;5009333;28;20053;-68
2022/04/15 02:25:06;;;;;;;12.98;8.65;;;6.50;99.90;;;;;;5010243;28;20057;-68
2022/04/15 02:27:32;;;;;;;10.30;8.57;;;6.50;99.90;;;;;;5024094;28;20153;-69
2022/04/15 02:29:57;;;;;;;13.13;8.63;;;6.50;99.90;;;;;;5024355;28;20136;-69
2022/04/15 02:32:23;;;;;;;14.23;8.98;;;6.50;99.90;;;;;;5025600;28;20060;-69
2022/04/15 02:34:50;;;;;;;13.30;8.65;;;6.50;99.90;;;;;;5028528;28;20673;-69
2022/04/15 02:37:16;;;;;;;10.68;8.55;;;6.60;99.90;;;;;;5007344;28;20142;-68
2022/04/15 02:39:42;;;;;;;10.93;7.90;;;6.60;99.90;;;;;;5027164;28;20084;-68
2022/04/15 02:42:08;;;;;;;10.52;7.68;;;6.60;99.90;;;;;;5025902;28;20049;-68
2022/04/15 02:44:37;;;;;;;10.93;8.25;;;6.60;99.90;;;;;;5025737;28;20083;-67
2022/04/15 02:47:03;;;;;;;13.57;8.55;;;6.60;99.90;;;;;;5022988;28;20437;-68
2022/04/15 02:49:30;;;;;;;14.73;8.52;;;6.60;99.90;;;;;;5025031;28;20088;-68
2022/04/15 02:51:56;;;;;;;13.90;9.57;;;6.70;99.90;;;;;;5008876;28;20084;-68
2022/04/15 02:54:23;;;;;;;16.00;8.75;;;6.70;99.90;;;;;;5014500;28;20757;-68
2022/04/15 02:56:49;;;;;;;11.07;8.07;;;6.70;99.90;;;;;;5024955;28;20040;-67
2022/04/15 02:59:16;;;;;;;10.57;8.60;;;6.80;99.90;;;;;;5024416;28;20037;-67
2022/04/15 03:01:44;;;;;;;12.55;8.65;;;6.70;99.90;;;;;;5023017;28;20056;-67
2022/04/15 03:04:10;;;;;;;14.00;8.25;;;6.80;99.90;;;;;;5026945;28;20049;-69
2022/04/15 03:06:35;;;;;;;13.43;9.43;;;6.80;99.90;;;;;;5026450;28;20388;-67
2022/04/15 03:09:04;;;;;;;12.68;9.05;;;6.80;99.90;;;;;;5027083;28;20048;-68
2022/04/15 03:11:32;;;;;;;10.15;8.10;;;6.80;99.90;;;;;;5027557;28;20041;-68
2022/04/15 03:13:58;;;;;;;13.75;8.43;;;6.80;99.90;;;;;;5027629;28;20136;-68
2022/04/15 03:16:23;;;;;;;12.02;8.27;;;6.80;99.90;;;;;;5023014;28;20112;-69
2022/04/15 03:18:49;;;;;;;15.55;8.02;;;6.80;99.90;;;;;;5028636;28;20056;-69
2022/04/15 03:21:15;;;;;;;13.93;8.65;;;6.80;99.90;;;;;;5026418;28;20037;-68
2022/04/15 03:23:42;;;;;;;12.88;8.38;;;6.80;99.90;;;;;;5013034;28;20390;-68
2022/04/15 03:26:08;;;;;;;10.35;7.97;;;6.80;99.90;;;;;;5028633;28;20415;-68
2022/04/15 03:28:34;;;;;;;9.63;7.70;;;6.90;99.90;;;;;;5029337;28;20037;-69
2022/04/15 03:30:59;;;;;;;10.50;8.27;;;6.90;99.90;;;;;;5032944;28;20045;-68
2022/04/15 03:33:25;;;;;;;9.40;7.80;;;6.90;99.90;;;;;;5025413;28;20057;-68
2022/04/15 03:35:51;;;;;;;16.38;8.43;;;6.90;99.90;;;;;;5025022;28;20447;-68
2022/04/15 03:38:16;;;;;;;14.18;7.90;;;6.90;99.90;;;;;;5023100;28;20060;-67
2022/04/15 03:40:42;;;;;;;12.13;7.82;;;6.90;99.90;;;;;;5023157;28;20505;-69
2022/04/15 03:43:07;;;;;;;12.65;7.72;;;7.00;99.90;;;;;;5021967;28;20457;-68
2022/04/15 03:45:33;;;;;;;9.75;7.32;;;7.00;99.90;;;;;;5023956;28;20531;-68
2022/04/15 03:47:59;;;;;;;13.25;8.00;;;7.00;99.90;;;;;;5028851;28;20312;-68
2022/04/15 03:50:25;;;;;;;11.50;8.00;;;7.00;99.90;;;;;;5028535;28;20124;-68
2022/04/15 03:52:51;;;;;;;10.35;7.28;;;7.00;99.90;;;;;;5027650;28;20159;-68
2022/04/15 03:55:20;;;;;;;9.98;7.78;;;7.00;99.90;;;;;;5029446;28;20505;-69
2022/04/15 03:57:46;;;;;;;12.18;8.07;;;7.00;99.90;;;;;;5030037;28;20041;-68
2022/04/15 04:00:18;;;;;;;11.40;7.20;;;7.10;99.90;;;;;;5030941;28;20041;-68
2022/04/15 04:02:45;;;;;;;9.98;7.18;;;7.10;99.90;;;;;;5028546;28;20075;-68
2022/04/15 04:05:13;;;;;;;12.65;7.45;;;7.10;99.90;;;;;;5028456;28;20045;-68
2022/04/15 04:07:39;;;;;;;14.15;7.55;;;7.10;99.90;;;;;;5027957;28;20125;-68
2022/04/15 04:10:06;;;;;;;12.98;8.38;;;7.20;99.90;;;;;;5027048;28;20044;-68
2022/04/15 04:12:33;;;;;;;9.35;7.75;;;7.20;99.90;;;;;;5028389;28;20096;-68
2022/04/15 04:15:00;;;;;;;9.82;7.47;;;7.20;99.90;;;;;;5026257;28;20612;-68
2022/04/15 04:17:25;;;;;;;10.88;7.18;;;7.30;99.90;;;;;;5026174;28;20045;-68
2022/04/15 04:19:51;;;;;;;14.23;7.78;;;7.30;99.90;;;;;;5029157;28;20059;-68
2022/04/15 04:22:17;;;;;;;9.98;7.30;;;7.30;99.90;;;;;;5026467;28;20088;-68
2022/04/15 04:24:42;;;;;;;9.93;7.65;;;7.30;99.90;;;;;;5028154;28;20037;-68
2022/04/15 04:27:08;;;;;;;11.63;7.38;;;7.40;99.90;;;;;;5026544;28;20041;-69
2022/04/15 04:29:34;;;;;;;10.10;7.35;;;7.30;99.90;;;;;;5030435;28;20061;-68
2022/04/15 04:31:59;;;;;;;12.80;7.50;;;7.40;99.90;;;;;;5027005;28;20081;-68
2022/04/15 04:34:25;;;;;;;7.93;7.13;;;7.50;99.90;;;;;;5030129;28;20037;-68
2022/04/15 04:36:50;;;;;;;9.52;7.28;;;7.50;99.90;;;;;;5027007;28;20448;-68
2022/04/15 04:39:16;;;;;;;10.23;7.20;;;7.50;99.90;;;;;;5028644;28;20095;-68
2022/04/15 04:41:42;;;;;;;9.52;7.47;;;7.50;99.90;;;;;;5029167;28;20473;-68
2022/04/15 04:44:08;;;;;;;9.35;7.75;;;7.50;99.90;;;;;;5028822;28;20034;-68
2022/04/15 04:46:35;;;;;;;9.70;7.28;;;7.60;99.90;;;;;;5027511;28;20056;-68
2022/04/15 04:49:01;;;;;;;9.95;7.50;;;7.60;99.90;;;;;;5030245;28;20525;-69
2022/04/15 04:51:27;;;;;;;14.07;7.10;;;7.60;99.90;;;;;;5026058;28;20542;-69
2022/04/15 04:53:52;;;;;;;11.27;7.82;;;7.70;99.90;;;;;;5028068;28;20458;-68
2022/04/15 04:56:18;;;;;;;10.93;7.53;;;7.60;99.90;;;;;;5027928;28;20041;-68
2022/04/15 04:58:44;;;;;;;10.63;7.13;;;7.70;99.90;;;;;;5028250;28;20064;-68
2022/04/15 05:01:09;;;;;;;15.25;8.02;;;7.70;99.90;;;;;;5027145;28;20041;-72
2022/04/15 05:03:35;;;;;;;10.95;8.18;;;7.70;99.90;;;;;;5028189;28;20129;-69
2022/04/15 05:06:01;;;;;;;14.88;8.40;;;7.80;99.90;;;;;;5027263;28;20037;-68
2022/04/15 05:08:27;;;;;;;12.20;9.60;;;7.80;99.90;;;;;;5027811;28;20051;-68
2022/04/15 05:10:52;;;;;;;11.30;8.60;;;7.80;99.90;;;;;;5029822;28;20442;-69
2022/04/15 05:13:18;;;;;;;12.88;8.95;;;7.80;99.90;;;;;;5011233;28;20490;-68
2022/04/15 05:15:44;;;;;;;13.45;9.00;;;7.80;99.90;;;;;;5028324;28;20029;-68
2022/04/15 05:18:09;;;;;;;11.43;8.75;;;7.90;99.90;;;;;;5033199;28;20126;-68
2022/04/15 05:20:37;;;;;;;11.60;8.35;;;7.90;99.90;;;;;;5014924;28;20053;-68
2022/04/15 05:23:03;;;;;;;8.73;7.78;;;7.80;99.90;;;;;;5032432;28;20115;-68
2022/04/15 05:25:28;;;;;;;9.95;7.82;;;7.90;99.90;;;;;;5032020;28;20045;-68
2022/04/15 05:27:58;;;;;;;9.60;7.15;;;7.90;99.90;;;;;;5031560;28;20389;-69
2022/04/15 05:30:24;;;;;;;7.47;6.78;;;8.00;99.90;;;;;;5027840;28;20095;-69
2022/04/15 05:32:50;;;;;;;7.28;5.68;;;8.00;99.90;;;;;;5029257;28;20049;-69
2022/04/15 05:35:15;;;;;;;7.07;6.38;;;7.90;99.90;;;;;;5030468;28;20056;-69
2022/04/15 05:37:41;;;;;;;8.32;6.40;;;8.00;99.90;;;;;;5030848;28;20050;-68
2022/04/15 05:40:08;;;;;;;6.70;5.95;;;8.00;99.90;;;;;;5031476;28;20384;-69
2022/04/15 05:42:33;;;;;;;7.53;5.50;;;7.90;99.90;;;;;;5014260;28;20061;-68
2022/04/15 05:44:59;;;;;;;6.93;6.10;;;7.90;99.90;;;;;;5032588;28;20037;-69
2022/04/15 05:47:25;;;;;;;6.18;5.53;;;7.90;99.90;;;;;;5029821;28;20136;-68
2022/04/15 05:49:51;;;;;;;6.10;4.95;;;7.90;99.90;;;;;;5029789;28;20460;-69
2022/04/15 05:52:16;;;;;;;6.80;5.18;;;7.90;99.90;;;;;;5012523;28;20358;-69
2022/04/15 05:54:42;;;;;;;5.78;5.05;;;8.00;99.90;;;;;;5029129;28;20436;-68
2022/04/15 05:57:08;;;;;;;5.25;4.40;;;7.90;99.90;;;;;;5013980;28;20041;-67
2022/04/15 05:59:33;;;;;;;6.03;4.53;;;8.00;99.90;;;;;;5031031;28;20095;-68
2022/04/15 06:01:59;;;;;;;4.35;3.95;;;7.90;99.90;;;;;;5029382;28;20114;-67
2022/04/15 06:04:25;;;;;;;5.25;3.85;;;7.90;99.90;;;;;;5030187;28;20037;-68
2022/04/15 06:06:50;;;;;;;4.65;4.25;;;7.90;99.90;;;;;;5029881;28;20118;-68
2022/04/15 06:09:16;;;;;;;5.22;4.07;;;7.90;99.90;;;;;;5030638;28;20080;-69
2022/04/15 06:11:42;;;;;;;4.18;3.72;;;7.90;99.90;;;;;;5029802;28;20113;-69
2022/04/15 06:14:08;;;;;;;5.20;3.38;;;7.90;99.90;;;;;;5031871;28;20035;-69
2022/04/15 06:16:37;;;;;;;4.72;3.67;;;7.80;99.90;;;;;;5030660;28;20045;-69
2022/04/15 06:19:04;;;;;;;3.92;3.33;;;7.80;99.90;;;;;;5031756;28;20587;-67
2022/04/15 06:21:31;;;;;;;6.95;3.78;;;7.70;99.90;;;;;;5031842;28;20084;-68
2022/04/15 06:23:57;;;;;;;5.47;3.60;;;7.70;99.90;;;;;;5031693;28;20120;-68
2022/04/15 06:26:23;;;;;;;3.85;3.55;;;7.60;99.90;;;;;;5031389;28;20450;-68
2022/04/15 06:28:49;;;;;;;3.92;3.47;;;7.70;99.90;;;;;;5031973;28;20041;-68
2022/04/15 06:31:14;;;;;;;5.82;4.75;;;7.70;99.90;;;;;;5029795;28;20064;-68
2022/04/15 06:33:41;;;;;;;7.88;5.35;;;7.60;99.90;;;;;;5030176;28;20050;-68
2022/04/15 06:36:07;;;;;;;5.55;4.45;;;7.50;99.90;;;;;;5031467;28;20164;-68
2022/04/15 06:38:33;;;;;;;4.63;3.97;;;7.60;99.90;;;;;;5012600;28;20128;-68
2022/04/15 06:40:58;;;;;;;7.45;3.35;;;7.60;99.90;;;;;;5013412;28;20564;-69
2022/04/15 06:43:24;;;;;;;3.63;3.05;;;7.60;99.90;;;;;;5028043;28;20045;-68
2022/04/15 06:45:50;;;;;;;3.40;3.08;;;7.60;99.90;;;;;;5027395;28;20048;-69
2022/04/15 06:48:16;;;;;;;4.63;3.13;;;7.60;99.90;;;;;;5028751;28;20461;-68
2022/04/15 06:50:41;;;;;;;4.32;3.45;;;7.60;99.90;;;;;;5031515;28;20834;-68
2022/04/15 06:53:07;;;;;;;3.63;2.88;;;7.60;99.90;;;;;;5031427;28;20056;-68
2022/04/15 06:55:33;;;;;;;3.75;3.10;;;7.60;99.90;;;;;;5030906;28;20092;-69
2022/04/15 06:57:59;;;;;;;6.13;3.20;;;7.60;99.90;;;;;;5031514;28;20103;-69
2022/04/15 07:00:25;;;;;;;3.90;2.83;;;7.60;99.90;;;;;;5029491;28;20050;-69
2022/04/15 07:02:50;;;;;;;4.22;2.80;;;7.60;99.90;;;;;;5028204;28;20045;-68
2022/04/15 07:05:16;;;;;;;4.50;3.90;;;7.60;99.90;;;;;;5030915;28;20046;-68
2022/04/15 07:07:43;;;;;;;5.28;3.58;;;7.60;99.90;;;;;;5013382;28;20053;-68
2022/04/15 07:10:11;;;;;;;4.97;3.40;;;7.70;99.90;;;;;;5030556;28;20037;-68
2022/04/15 07:12:38;;;;;;;4.38;3.90;;;7.70;99.90;;;;;;5028067;28;20045;-69
2022/04/15 07:15:05;;;;;;;6.43;4.55;;;7.70;99.90;;;;;;5013288;28;20053;-68
2022/04/15 07:17:31;;;;;;;5.40;4.45;;;7.70;99.90;;;;;;5029174;28;20045;-68
2022/04/15 07:19:57;;;;;;;4.75;3.72;;;7.80;99.90;;;;;;5028095;28;20073;-69
2022/04/15 07:22:23;;;;;;;7.50;4.30;;;7.70;99.90;;;;;;5029304;28;20076;-69
2022/04/15 07:24:50;;;;;;;5.18;4.32;;;7.70;99.90;;;;;;5030001;28;20061;-69
2022/04/15 07:27:16;;;;;;;7.28;4.68;;;7.80;99.90;;;;;;5029455;28;20049;-69
2022/04/15 07:29:42;;;;;;;5.70;4.60;;;7.80;99.90;;;;;;5012228;28;20382;-68
2022/04/15 07:32:08;;;;;;;8.38;5.38;;;7.80;99.90;;;;;;5028443;28;20136;-68
2022/04/15 07:34:35;;;;;;;8.02;5.00;;;7.80;99.90;;;;;;5029692;28;20088;-69
2022/04/15 07:37:02;;;;;;;7.00;5.60;;;7.90;99.90;;;;;;5029440;28;20081;-69
2022/04/15 07:39:28;;;;;;;7.63;5.97;;;8.00;99.90;;;;;;5028595;28;20436;-68
2022/04/15 07:41:54;;;;;;;9.25;6.00;;;8.00;99.90;;;;;;5013900;28;20045;-68
2022/04/15 07:44:20;;;;;;;9.13;6.95;;;8.00;99.90;;;;;;5031004;28;20060;-68
2022/04/15 07:46:47;;;;;;;9.63;6.32;;;8.10;99.90;;;;;;5029191;28;20061;-68
2022/04/15 07:49:13;;;;;;;9.13;7.28;;;8.10;99.90;;;;;;5012367;28;20382;-68
2022/04/15 07:51:39;;;;;;;10.73;7.75;;;8.00;99.90;;;;;;5030110;28;20089;-68
2022/04/15 07:54:06;;;;;;;12.50;8.10;;;8.10;99.90;;;;;;5029139;28;20447;-68
2022/04/15 07:56:32;;;;;;;9.88;7.57;;;8.10;99.90;;;;;;5031736;28;20033;-68
2022/04/15 07:58:59;;;;;;;10.18;8.07;;;8.10;99.90;;;;;;5030753;28;20041;-68
2022/04/15 08:01:27;;;;;;;11.57;8.05;;;8.20;99.90;;;;;;5027198;28;20080;-68
2022/04/15 08:03:57;;;;;;;11.93;8.40;;;8.10;99.90;;;;;;5030198;28;20048;-68
2022/04/15 08:06:24;;;;;;;14.73;9.60;;;8.20;99.90;;;;;;5029985;28;20446;-69
2022/04/15 08:08:54;;;;;;;11.38;8.43;;;8.20;99.90;;;;;;5028180;28;20057;-69
2022/04/15 08:11:20;;;;;;;11.13;8.80;;;8.30;99.90;;;;;;5027638;28;20042;-69
2022/04/15 08:13:47;;;;;;;13.13;9.75;;;8.30;99.90;;;;;;5012063;28;20076;-68
2022/04/15 08:16:13;;;;;;;12.23;8.32;;;8.30;99.90;;;;;;5030043;28;20037;-68
2022/04/15 08:18:38;;;;;;;11.98;8.77;;;8.30;99.90;;;;;;5029793;28;20043;-68
2022/04/15 08:21:04;;;;;;;12.55;9.18;;;8.40;99.90;;;;;;5009101;28;20123;-68
2022/04/15 08:23:30;;;;;;;12.00;9.40;;;8.40;99.90;;;;;;5028996;28;20057;-68
2022/04/15 08:25:56;;;;;;;13.95;8.95;;;8.50;99.90;;;;;;5028517;28;20899;-69
2022/04/15 08:28:21;;;;;;;16.63;10.30;;;8.50;99.90;;;;;;5011947;28;20050;-68
2022/04/15 08:30:47;;;;;;;10.77;9.30;;;8.50;99.90;;;;;;5026790;28;20144;-69
2022/04/15 08:33:13;;;;;;;16.38;10.25;;;8.60;99.90;;;;;;5028730;28;20128;-69
2022/04/15 08:35:39;;;;;;;17.42;10.52;;;8.60;99.90;;;;;;5012556;28;20088;-69
2022/04/15 08:38:06;;;;;;;12.75;10.07;;;8.70;99.90;;;;;;5029970;28;20069;-68
2022/04/15 08:40:35;;;;;;;15.30;10.52;;;8.70;99.90;;;;;;5028822;28;20508;-68
2022/04/15 08:43:02;;;;;;;15.10;10.18;;;8.70;99.90;;;;;;5029601;28;20421;-68
2022/04/15 08:45:29;;;;;;;13.43;10.15;;;8.70;99.90;;;;;;5029032;28;20065;-68
2022/04/15 08:48:02;;;;;;;14.90;10.07;;;8.80;99.90;;;;;;5028392;28;20051;-68
2022/04/15 08:50:29;;;;;;;14.67;10.00;;;8.80;99.90;;;;;;5032284;28;20117;-68
2022/04/15 08:52:57;;;;;;;13.13;10.05;;;8.80;99.90;;;;;;5031544;28;20780;-69
2022/04/15 08:55:24;;;;;;;13.75;9.90;;;8.90;99.90;;;;;;5031669;28;20045;-69
2022/04/15 08:57:51;;;;;;;14.98;9.90;;;9.00;99.90;;;;;;5034842;28;20045;-69
2022/04/15 09:00:21;;;;;;;17.00;10.43;;;9.10;99.90;;;;;;5033919;28;20048;-69
2022/04/15 09:02:49;;;;;;;12.90;8.57;;;9.10;99.90;;;;;;5032252;28;20072;-69
2022/04/15 09:05:19;;;;;;;14.63;9.18;;;9.10;99.90;;;;;;5033429;28;20048;-69
2022/04/15 09:07:45;;;;;;;11.75;8.90;;;9.10;99.90;;;;;;5033476;28;20102;-69
2022/04/15 09:10:12;;;;;;;12.73;8.43;;;9.10;99.90;;;;;;5030530;28;20053;-69
2022/04/15 09:12:40;;;;;;;11.18;7.55;;;9.20;99.90;;;;;;5015207;28;20148;-69
2022/04/15 09:15:06;;;;;;;8.85;7.53;;;9.30;99.90;;;;;;5031616;28;20433;-69
2022/04/15 09:17:35;;;;;;;10.20;7.75;;;9.30;99.90;;;;;;5031333;28;20059;-68
2022/04/15 09:20:06;;;;;;;9.75;7.63;;;9.30;99.90;;;;;;5030326;28;20060;-68
2022/04/15 09:22:32;;;;;;;12.55;9.05;;;9.20;99.90;;;;;;5033227;28;20673;-68
2022/04/15 09:24:59;;;;;;;13.90;8.65;;;9.30;99.90;;;;;;5030715;28;20041;-68
2022/04/15 09:27:25;;;;;;;11.43;7.32;;;9.30;99.90;;;;;;5031221;28;20104;-68
2022/04/15 09:29:56;;;;;;;12.68;7.43;;;9.40;99.90;;;;;;5013202;28;20076;-69
2022/04/15 09:32:24;;;;;;;12.55;7.43;;;9.50;99.90;;;;;;5030920;28;20087;-69
2022/04/15 09:35:09;;;;;;;9.02;7.57;;;9.60;99.90;;;;;;5033051;28;20048;-69
2022/04/15 09:37:40;;;;;;;10.88;6.72;;;9.70;99.90;;;;;;5030838;28;20056;-69
2022/04/15 09:40:14;;;;;;;12.07;7.38;;;9.80;99.90;;;;;;5030988;28;20064;-71
2022/04/15 09:42:43;;;;;;;;;;;9.80;99.90;;;;;;5031491;28;20111;-68
2022/04/15 09:45:19;;;;;;;11.85;6.65;;;9.80;99.90;;;;;;5031331;28;20003;-69
2022/04/15 09:47:53;;;;;;;8.68;6.32;;;9.80;99.90;;;;;;5030644;28;20123;-69
2022/04/15 09:50:31;;;;;;;10.15;6.50;;;9.80;99.90;;;;;;5029085;28;20393;-69
2022/04/15 09:53:18;;;;;;;8.90;6.30;;;10.00;99.90;;;;;;5028723;28;20069;-69
2022/04/15 09:55:51;;;;;;;7.50;4.88;;;10.20;99.90;;;;;;5028651;28;20049;-69
2022/04/15 09:58:22;;;;;;;9.05;4.60;;;10.50;99.90;;;;;;5029862;28;20060;-69
2022/04/15 10:00:51;;;;;;;6.57;4.38;;;10.60;99.90;;;;;;5027619;28;20133;-70
2022/04/15 10:03:27;;;;;;;7.10;4.78;;;10.60;99.90;;;;;;5030693;28;20505;-70
2022/04/15 10:05:55;;;;;;;7.30;4.97;;;10.80;99.90;;;;;;5033261;28;20048;-70
2022/04/15 10:08:22;;;;;;;6.72;4.68;;;11.00;99.90;;;;;;5032989;28;20041;-70
2022/04/15 10:10:49;;;;;;;9.10;4.95;;;11.40;99.90;;;;;;5032848;28;20124;-70
2022/04/15 10:13:14;;;;;;;6.75;4.43;;;11.80;99.90;;;;;;5031067;28;20053;-70
2022/04/15 10:15:41;;;;;;;8.30;5.28;;;12.20;99.40;;;;;;5028264;28;20049;-70
2022/04/15 10:18:08;;;;;;;9.55;4.97;;;12.70;99.70;;;;;;5025998;28;20088;-69
2022/04/15 10:20:38;;;;;;;4.90;4.00;;;13.30;99.60;;;;;;5027336;28;20041;-69
2022/04/15 10:23:06;;;;;;;7.00;4.40;;;14.30;99.60;;;;;;5030359;28;20366;-69
2022/04/15 10:25:33;;;;;;;7.13;4.55;;;14.60;94.90;;;;;;5028218;28;20475;-69
2022/04/15 10:28:10;;;;;;;6.15;4.07;;;14.50;92.30;;;;;;5031743;28;20131;-69
2022/04/15 10:30:38;;;;;;;5.80;4.18;;;14.30;91.80;;;;;;5027213;28;20571;-70
2022/04/15 10:33:04;;;;;;;6.70;4.35;;;14.00;92.60;;;;;;5013587;28;20069;-70
2022/04/15 10:35:34;;;;;;;6.00;4.30;;;13.60;92.20;;;;;;5031463;28;20498;-68
2022/04/15 10:38:13;;;;;;;6.28;3.95;;;13.30;92.70;;;;;;5028208;28;20033;-67
2022/04/15 10:40:44;;;;;;;6.65;4.20;;;13.00;92.00;;;;;;5028086;28;20381;-73
2022/04/15 10:43:21;;;;;;;7.97;4.35;;;12.70;92.50;;;;;;5029106;28;20045;-73
2022/04/15 10:45:48;;;;;;;6.38;3.83;;;12.60;91.80;;;;;;5024605;28;20049;-72
2022/04/15 10:48:27;;;;;;;7.57;4.63;;;12.40;92.60;;;;;;5029448;28;20094;-67
2022/04/15 10:50:53;;;;;;;6.38;4.63;;;12.30;93.30;;;;;;5029018;28;20049;-66
2022/04/15 10:53:23;;;;;;;7.40;4.20;;;12.20;93.80;;;;;;5030849;28;20045;-66
2022/04/15 10:55:49;;;;;;;7.35;4.78;;;12.20;93.60;;;;;;5027568;28;20037;-66
2022/04/15 10:58:16;;;;;;;5.80;4.20;;;12.20;94.10;;;;;;5030366;28;20569;-66
2022/04/15 11:03:29;;;;;;;6.55;4.28;;;12.20;94.50;;;;;;5027999;28;20042;-66
2022/04/15 11:05:57;;;;;;;6.22;4.30;;;12.10;93.70;;;;;;5009691;28;20597;-66
2022/04/15 11:08:25;;;;;;;6.72;4.40;;;12.00;94.10;;;;;;5027129;28;20099;-66
2022/04/15 11:11:03;;;;;;;7.60;4.15;;;12.00;93.80;;;;;;5029777;28;20057;-66
2022/04/15 11:13:39;;;;;;;7.35;4.90;;;12.00;93.60;;;;;;5027660;28;20037;-67
2022/04/15 11:16:15;;;;;;;6.30;4.72;;;12.00;93.40;;;;;;5030338;28;20088;-66
2022/04/15 11:18:53;;;;;;;6.43;4.35;;;12.00;93.90;;;;;;5030117;28;20099;-67
2022/04/15 11:21:21;;;;;;;6.47;4.13;;;12.10;93.40;;;;;;5031237;28;20493;-67
2022/04/15 11:23:56;;;;;;;6.68;4.28;;;12.10;93.60;;;;;;5012983;28;20050;-67
2022/04/15 11:26:23;;;;;;;6.57;3.80;;;12.20;93.60;;;;;;5032249;28;20037;-66
2022/04/15 11:28:50;;;;;;;4.97;3.92;;;12.30;93.70;;;;;;5031339;28;20037;-66
2022/04/15 11:31:30;;;;;;;6.50;4.18;;;12.30;92.90;;;;;;5028474;28;20053;-66
2022/04/15 11:34:05;;;;;;;6.28;3.85;;;12.30;92.70;;;;;;5029377;28;20515;-66
2022/04/15 11:36:33;;;;;;;7.40;4.18;;;12.30;93.00;;;;;;5026179;28;20493;-67
2022/04/15 11:39:00;;;;;;;6.22;4.28;;;12.30;93.20;;;;;;5030230;28;20045;-66
2022/04/15 11:41:27;;;;;;;5.47;4.57;;;12.50;93.40;;;;;;5030557;28;20065;-67
2022/04/15 11:43:59;;;;;;;8.25;4.50;;;12.50;93.10;;;;;;5029562;28;20124;-66
2022/04/15 11:46:45;;;;;;;9.00;5.22;;;12.40;92.60;;;;;;5024618;28;20061;-66
2022/04/15 11:49:22;;;;;;;6.75;4.72;;;12.30;93.00;;;;;;5029887;28;20489;-67
2022/04/15 11:51:51;;;;;;;5.93;4.35;;;12.20;92.70;;;;;;5041008;28;20135;-66
2022/04/15 11:54:24;;;;;;;6.47;4.93;;;12.10;93.00;;;;;;5029635;28;20095;-66
2022/04/15 11:56:57;;;;;;;7.57;5.38;;;12.20;93.50;;;;;;5027138;28;20128;-67
2022/04/15 11:59:24;;;;;;;9.13;5.45;;;12.20;93.70;;;;;;5029537;28;20077;-67
2022/04/15 12:01:52;;;;;;;8.23;4.63;;;12.20;93.30;;;;;;5027682;28;20041;-67
2022/04/15 12:04:18;;;;;;;8.68;5.03;;;12.10;93.10;;;;;;5030455;28;20072;-67
2022/04/15 12:06:44;;;;;;;7.55;5.63;;;12.10;93.40;;;;;;5030244;28;20037;-68
2022/04/15 12:09:11;;;;;;;7.10;5.22;;;12.10;93.60;;;;;;5030819;28;20113;-68
2022/04/15 12:11:38;;;;;;;6.97;4.75;;;12.10;93.30;;;;;;5030168;28;20456;-68
2022/04/15 12:14:08;;;;;;;7.65;4.80;;;12.00;92.80;;;;;;5029741;28;20371;-68
2022/04/15 12:16:39;;;;;;;6.28;4.28;;;12.00;93.10;;;;;;5029265;28;20045;-68
2022/04/15 12:19:06;;;;;;;9.80;5.18;;;12.00;93.30;;;;;;5012835;28;20075;-68
2022/04/15 12:21:33;;;;;;;7.55;4.43;;;12.00;93.30;;;;;;5027646;28;20056;-68
2022/04/15 12:24:09;;;;;;;8.25;4.45;;;12.00;92.70;;;;;;5028543;28;20041;-68
2022/04/15 12:26:42;;;;;;;6.45;4.78;;;12.00;93.10;;;;;;5029906;28;20519;-68
2022/04/15 12:31:53;;;;;;;7.40;5.10;;;12.10;93.20;;;;;;5024813;28;20049;-68
2022/04/15 12:34:30;;;;;;;6.05;4.60;;;12.10;93.20;;;;;;5030638;28;20037;-68
2022/04/15 12:36:56;;;;;;;6.22;4.50;;;12.10;92.60;;;;;;5026501;28;20037;-68
2022/04/15 12:39:21;;;;;;;4.53;3.83;;;12.10;92.70;;;;;;5029440;28;20136;-68
2022/04/15 12:41:48;;;;;;;4.88;4.38;;;12.10;92.80;;;;;;5030169;28;20179;-68
2022/04/15 12:44:31;;;;;;;8.13;4.90;;;12.10;92.90;;;;;;5030405;28;20041;-68
2022/04/15 12:47:02;;;;;;;6.93;4.53;;;12.10;91.90;;;;;;5026537;28;20048;-69
2022/04/15 12:49:33;;;;;;;6.03;4.22;;;11.90;92.50;;;;;;5012140;28;20049;-69
2022/04/15 12:52:09;;;;;;;5.57;4.50;;;12.10;92.70;;;;;;5027336;28;20048;-69
2022/04/15 12:54:53;;;;;;;5.82;4.82;;;12.20;92.00;;;;;;5028762;28;20091;-69
2022/04/15 12:57:19;;;;;;;7.95;4.60;;;12.20;92.20;;;;;;4999076;28;20088;-68